Weather reports worldwide

Advertisment
Threave, United Kingdom (99090): temperature & dewpoint: 15.02.2017 14:00:00 - 21.02.2017 14:00:00 (GMT)Threave, United Kingdom (99090): temperature -20cm & temperature -100cm: 15.02.2017 14:00:00 - 21.02.2017 14:00:00 (GMT)Threave, United Kingdom (99090): precipitation: 15.02.2017 14:00:00 - 21.02.2017 14:00:00 (GMT)
Date & Time tt [°C] td [°C] tt -20cm [°C] tt -100cm [°C] rr [mm]
21.02.2017 14:00:00 - - - - -
21.02.2017 13:00:00 8,0 7,8 - - 1,2
21.02.2017 12:00:00 8,2 7,3 - - 0,0
21.02.2017 11:00:00 8,2 6,9 - - 0,0
21.02.2017 10:00:00 7,1 6,6 - - 0,0
21.02.2017 09:00:00 6,0 5,7 7,0 6,7 0,0
21.02.2017 08:00:00 4,3 4,1 - - 0,0
21.02.2017 07:00:00 3,5 2,9 - - 0,0
21.02.2017 06:00:00 4,3 3,0 - - 0,0
21.02.2017 05:00:00 6,1 4,1 - - 0,0
21.02.2017 04:00:00 6,0 4,0 - - 0,0
21.02.2017 03:00:00 6,9 4,7 - - 0,0
21.02.2017 02:00:00 7,1 5,0 - - 0,0
21.02.2017 01:00:00 7,2 4,8 - - 0,0
21.02.2017 00:00:00 7,3 4,8 - - 0,0
20.02.2017 23:00:00 7,5 4,6 - - 0,0
20.02.2017 22:00:00 7,8 4,9 - - 0,0
20.02.2017 21:00:00 8,1 4,9 - - 0,0
20.02.2017 20:00:00 8,2 4,8 - - 0,0
20.02.2017 19:00:00 8,5 5,2 - - 0,0
20.02.2017 18:00:00 8,9 5,4 - - 0,0
20.02.2017 17:00:00 9,5 5,7 - - 0,0
20.02.2017 16:00:00 10,3 6,7 - - 0,0
20.02.2017 15:00:00 10,7 7,4 - - 0,0
20.02.2017 14:00:00 11,5 9,1 - - 0,0
20.02.2017 13:00:00 11,5 9,7 - - 0,0
20.02.2017 12:00:00 12,0 10,4 - - 0,0
20.02.2017 11:00:00 11,4 10,9 - - 0,2
20.02.2017 10:00:00 9,4 9,3 - - 0,8
20.02.2017 09:00:00 9,5 9,3 6,9 6,7 0,0
20.02.2017 08:00:00 10,0 9,4 - - 0,0
20.02.2017 07:00:00 9,9 9,2 - - 0,0
20.02.2017 06:00:00 9,9 9,2 - - 0,0
20.02.2017 05:00:00 10,3 9,6 - - 0,0
20.02.2017 04:00:00 10,7 9,9 - - 0,0
20.02.2017 03:00:00 11,0 9,9 - - 0,0
20.02.2017 02:00:00 10,9 10,4 - - 0,0
20.02.2017 01:00:00 10,9 10,6 - - 0,0
20.02.2017 00:00:00 10,6 10,4 - - 0,0
19.02.2017 23:00:00 10,6 10,5 - - 0,0
19.02.2017 22:00:00 10,1 10,1 - - 0,0
19.02.2017 21:00:00 9,3 9,3 - - 0,0
19.02.2017 20:00:00 9,0 9,0 - - 0,2
19.02.2017 19:00:00 8,7 8,7 - - 0,0
19.02.2017 18:00:00 8,7 8,7 - - 0,0
19.02.2017 17:00:00 8,7 8,7 - - 0,0
19.02.2017 16:00:00 8,5 8,5 - - 0,0
19.02.2017 15:00:00 8,6 8,4 - - 0,0
19.02.2017 14:00:00 8,4 8,3 - - 0,0
19.02.2017 13:00:00 8,4 8,0 - - 0,0
19.02.2017 12:00:00 9,0 8,2 - - 0,0
19.02.2017 11:00:00 8,4 7,6 - - 0,0
19.02.2017 10:00:00 7,7 7,0 - - 0,0
19.02.2017 09:00:00 7,6 6,8 6,5 6,4 0,0
19.02.2017 08:00:00 6,4 5,8 - - 0,0
19.02.2017 07:00:00 6,9 6,1 - - 0,0
19.02.2017 06:00:00 7,1 5,9 - - 0,0
19.02.2017 05:00:00 7,5 6,1 - - 0,0
19.02.2017 04:00:00 7,3 6,1 - - 0,0
19.02.2017 03:00:00 7,2 5,9 - - 0,0
19.02.2017 02:00:00 7,6 6,1 - - 0,0
19.02.2017 01:00:00 7,2 5,8 - - 0,0
19.02.2017 00:00:00 7,5 5,6 - - 0,0
18.02.2017 23:00:00 7,5 6,2 - - 0,0
18.02.2017 22:00:00 8,0 7,2 - - 0,0
18.02.2017 21:00:00 8,0 6,9 - - 0,0
18.02.2017 20:00:00 7,7 7,2 - - 0,0
18.02.2017 19:00:00 7,9 7,7 - - 0,0
18.02.2017 18:00:00 8,2 8,0 - - 0,0
18.02.2017 17:00:00 8,5 8,5 - - 0,0
18.02.2017 16:00:00 8,6 8,6 - - 0,0
18.02.2017 15:00:00 8,5 8,5 - - 0,0
18.02.2017 14:00:00 8,6 8,5 - - 1,6
18.02.2017 13:00:00 8,5 8,3 - - 2,6
18.02.2017 12:00:00 8,3 8,1 - - 2,0
18.02.2017 11:00:00 8,0 7,8 - - 2,4
18.02.2017 10:00:00 8,3 8,0 - - 0,6
18.02.2017 09:00:00 8,4 8,0 6,2 6,2 0,6
18.02.2017 08:00:00 8,2 8,0 - - 0,8
18.02.2017 07:00:00 7,9 7,6 - - 0,6
18.02.2017 06:00:00 7,9 7,4 - - 0,0
18.02.2017 05:00:00 8,0 7,2 - - 0,2
18.02.2017 04:00:00 7,9 7,1 - - 0,0
18.02.2017 03:00:00 8,1 7,3 - - 0,2
18.02.2017 02:00:00 8,2 7,3 - - 0,2
18.02.2017 01:00:00 8,3 7,2 - - 0,0
18.02.2017 00:00:00 8,5 7,1 - - 0,0
17.02.2017 23:00:00 8,6 7,1 - - 0,0
17.02.2017 22:00:00 8,4 7,4 - - 0,2
17.02.2017 21:00:00 8,3 7,1 - - 0,2
17.02.2017 20:00:00 8,2 7,3 - - 0,0
17.02.2017 19:00:00 8,2 7,4 - - 0,0
17.02.2017 18:00:00 7,8 7,0 - - 0,2
17.02.2017 17:00:00 7,8 7,1 - - 0,0
17.02.2017 16:00:00 7,8 7,7 - - 0,0
17.02.2017 15:00:00 8,0 7,9 - - 0,0
17.02.2017 14:00:00 8,0 8,0 - - 0,0
17.02.2017 13:00:00 7,4 7,4 - - 0,0
17.02.2017 12:00:00 7,2 7,2 - - 0,0
17.02.2017 11:00:00 7,0 7,0 - - 0,2
17.02.2017 10:00:00 6,9 6,9 - - 0,0
17.02.2017 09:00:00 6,8 6,8 5,9 6,2 0,0
17.02.2017 08:00:00 6,9 6,9 - - 0,0
17.02.2017 07:00:00 7,0 7,0 - - 0,0
17.02.2017 06:00:00 7,1 7,1 - - 0,0
17.02.2017 05:00:00 7,1 7,1 - - 0,0
17.02.2017 04:00:00 7,1 7,1 - - 0,0
17.02.2017 03:00:00 7,4 7,4 - - 0,0
17.02.2017 02:00:00 7,3 7,3 - - 0,0
17.02.2017 01:00:00 7,6 7,5 - - 0,0
17.02.2017 00:00:00 7,6 7,6 - - 0,0
16.02.2017 23:00:00 7,5 7,4 - - 0,0
16.02.2017 22:00:00 7,5 7,3 - - 0,0
16.02.2017 21:00:00 7,5 7,2 - - 0,0
16.02.2017 20:00:00 7,5 7,2 - - 0,2
16.02.2017 19:00:00 7,3 7,1 - - 0,2
16.02.2017 18:00:00 7,5 7,1 - - 0,0
16.02.2017 17:00:00 7,9 7,3 - - 0,2
16.02.2017 16:00:00 8,8 6,9 - - 0,0
16.02.2017 15:00:00 9,0 7,1 - - 0,0
16.02.2017 14:00:00 9,0 7,1 - - 0,0
16.02.2017 13:00:00 8,4 6,8 - - 0,0
16.02.2017 12:00:00 8,3 6,5 - - 0,0
16.02.2017 11:00:00 7,6 6,5 - - 0,0
16.02.2017 10:00:00 7,7 6,4 - - 0,2
16.02.2017 09:00:00 6,7 5,6 5,5 6,0 0,0
16.02.2017 08:00:00 6,3 5,6 - - 0,0
16.02.2017 07:00:00 5,6 4,4 - - 0,0
16.02.2017 06:00:00 6,0 4,9 - - 0,0
16.02.2017 05:00:00 6,7 5,6 - - 0,0
16.02.2017 04:00:00 7,0 5,7 - - 0,0
16.02.2017 03:00:00 7,0 5,9 - - 0,0
16.02.2017 02:00:00 6,6 5,4 - - 0,0
16.02.2017 01:00:00 7,5 6,1 - - 0,0
16.02.2017 00:00:00 7,7 6,6 - - 0,0
15.02.2017 23:00:00 7,5 6,8 - - 0,2
15.02.2017 22:00:00 7,8 7,2 - - 0,4
15.02.2017 21:00:00 7,0 6,3 - - 0,0
15.02.2017 20:00:00 8,2 7,7 - - 0,2
15.02.2017 19:00:00 8,1 7,9 - - 0,0
15.02.2017 18:00:00 7,9 7,5 - - 0,0
15.02.2017 17:00:00 8,2 7,2 - - 0,0
15.02.2017 16:00:00 8,3 7,1 - - 0,2
15.02.2017 15:00:00 8,5 7,4 - - 0,0
15.02.2017 14:00:00 8,8 7,1 - - 0,0

tt = temperature
td = dewpoint
tt -20cm = temperature -20cm
tt -100cm = temperature -100cm
rr = precipitation

Next stations